MST,Max TemperatureF,Mean TemperatureF,Min TemperatureF,Max Dew PointF,MeanDew PointF,Min DewpointF,Max Humidity, Mean Humidity, Min Humidity, Max Sea Level PressureIn, Mean Sea Level PressureIn, Min Sea Level PressureIn, Max VisibilityMiles, Mean VisibilityMiles, Min VisibilityMiles, Max Wind SpeedMPH, Mean Wind SpeedMPH, Max Gust SpeedMPH,PrecipitationIn, CloudCover, Events, WindDirDegrees
2012-12-1,79,67,54,51,48,44,77,54,30,30.09,30.03,29.98,10,10,10,9,3,12,0.00,4,,255
2012-12-2,79,67,54,49,47,44,67,49,30,30.06,30.01,29.96,10,10,10,13,3,15,0.00,2,,214
2012-12-3,78,67,56,51,48,47,67,50,33,30.12,30.05,30.00,10,10,10,10,2,13,0.00,4,,256
2012-12-4,81,69,57,48,46,42,67,47,26,30.20,30.13,30.09,10,10,10,12,5,15,0.00,5,,10
2012-12-5,83,70,57,45,43,39,57,39,21,30.09,30.00,29.91,10,10,9,9,4,12,0.00,5,,359
2012-12-6,80,67,54,45,42,39,64,44,23,29.91,29.86,29.80,10,10,10,13,3,18,0.00,4,,31
2012-12-7,80,67,53,41,38,30,59,39,18,29.93,29.88,29.85,10,10,10,14,4,20,0.00,0,,8
2012-12-8,77,64,50,35,29,22,48,31,14,29.95,29.90,29.86,10,10,10,9,1,13,0.00,2,,57
2012-12-9,77,62,47,32,26,20,50,31,12,30.14,30.00,29.91,10,10,10,15,7,20,0.00,2,,19
2012-12-10,70,60,50,27,19,14,39,26,13,30.19,30.11,30.04,10,10,9,22,10,28,0.00,0,,359
2012-12-11,73,60,46,28,24,20,49,32,15,30.08,30.01,29.95,10,10,10,13,4,17,0.00,2,,58
2012-12-12,75,61,46,44,32,21,53,37,21,29.97,29.89,29.83,10,10,10,18,6,22,0.00,3,,104
2012-12-13,71,62,52,52,44,30,93,62,31,29.84,29.75,29.66,10,10,6,22,10,28,0.58,6,Rain-Thunderstorm,113
2012-12-14,63,56,48,49,43,39,89,68,46,29.98,29.87,29.71,10,10,9,15,6,20,0.00,4,,209
2012-12-15,62,56,50,46,43,41,77,66,55,30.06,29.97,29.92,10,10,10,16,6,21,T,6,,37
2012-12-16,62,54,45,43,41,38,82,61,39,30.17,30.11,30.02,10,10,10,13,2,18,0.00,3,,10
2012-12-17,68,61,54,46,42,38,72,56,40,30.15,30.08,29.99,10,10,10,10,4,13,0.00,3,,81
2012-12-18,68,59,50,55,43,34,78,60,42,29.96,29.85,29.74,10,10,10,28,7,36,0.02,5,,327
2012-12-19,59,51,42,34,21,14,53,35,16,30.35,30.17,29.88,10,10,10,18,8,23,0.00,1,,340
2012-12-20,60,50,39,24,21,17,50,35,20,30.36,30.26,30.16,10,10,10,17,9,21,0.00,3,,5
2012-12-21,64,55,45,27,22,18,40,29,17,30.15,30.10,30.05,10,10,10,17,7,24,0.00,4,,360
2012-12-22,65,54,43,35,29,19,60,39,18,30.14,30.08,30.05,10,10,10,8,2,9,0.00,4,,27
2012-12-23,65,53,41,40,34,30,67,48,28,30.17,30.09,30.04,10,10,10,12,3,13,0.00,3,,354
2012-12-24,71,60,48,44,40,38,71,52,32,30.06,29.99,29.90,10,10,10,14,6,17,0.00,1,,222
2012-12-25,62,55,47,42,14,6,74,43,11,30.18,30.08,30.00,10,10,10,17,9,22,0.00,4,,16
2012-12-26,65,54,42,36,23,11,54,34,13,29.98,29.92,29.86,10,10,10,13,4,15,0.00,3,,292
2012-12-27,63,52,41,36,33,29,76,52,27,30.07,29.96,29.90,10,10,10,14,4,16,0.00,1,,282
2012-12-28,63,51,39,32,27,22,70,45,20,30.19,30.12,30.08,10,10,10,15,5,20,0.00,0,,28
2012-12-29,62,52,42,31,27,24,53,39,25,30.12,30.04,29.96,10,10,10,14,4,16,0.00,5,,31
2012-12-30,62,53,43,40,33,29,63,46,29,29.99,29.93,29.86,10,10,10,16,5,21,T,6,Rain,290
2012-12-31,61,50,39,40,28,18,85,53,21,30.25,30.16,30.01,10,10,10,13,4,16,0.00,1,,321